Time;durP1;ratioP1;P1;durP2;ratioP2;P2;SDS_P1;SDS_P2;PMS_P1;PMS_P2;Temp;Humidity;BMP_temperature;BMP_pressure;BME280_temperature;BME280_humidity;BME280_pressure;Samples;Min_cycle;Max_cycle;Signal;HPM_P1;HPM_P2
2023/04/15 00:00:50;;;;;;;3.83;3.37;;;5.80;71.30;;;;;;4983677;28;21196;-66
2023/04/15 00:03:17;;;;;;;4.37;3.67;;;5.80;76.80;;;;;;5010562;28;20878;-66
2023/04/15 00:05:44;;;;;;;5.47;3.63;;;5.80;79.70;;;;;;4985008;28;21435;-66
2023/04/15 00:08:12;;;;;;;5.80;3.83;;;5.90;87.10;;;;;;4992320;28;20225;-65
2023/04/15 00:10:39;;;;;;;4.60;3.73;;;5.90;89.20;;;;;;5001712;28;20216;-66
2023/04/15 00:13:06;;;;;;;8.13;4.10;;;6.00;90.30;;;;;;4991904;28;20709;-65
2023/04/15 00:15:33;;;;;;;6.23;4.27;;;6.00;90.40;;;;;;5018062;28;20205;-66
2023/04/15 00:18:00;;;;;;;4.70;4.07;;;6.00;89.50;;;;;;4997810;28;20204;-66
2023/04/15 00:20:26;;;;;;;7.40;4.03;;;6.00;90.40;;;;;;5022222;28;20290;-66
2023/04/15 00:22:53;;;;;;;8.20;4.90;;;6.00;91.10;;;;;;4978267;28;20276;-66
2023/04/15 00:25:22;;;;;;;4.30;3.53;;;6.00;92.00;;;;;;5000195;28;20797;-65
2023/04/15 00:27:49;;;;;;;6.07;4.63;;;6.10;92.20;;;;;;5008136;28;20681;-66
2023/04/15 00:30:15;;;;;;;5.37;4.43;;;6.10;92.90;;;;;;5014991;28;20197;-66
2023/04/15 00:32:43;;;;;;;5.77;4.40;;;6.10;93.00;;;;;;5010108;28;20428;-66
2023/04/15 00:35:10;;;;;;;5.50;4.47;;;6.20;92.70;;;;;;5019924;28;20575;-66
2023/04/15 00:37:37;;;;;;;6.40;4.57;;;6.20;92.70;;;;;;4985785;28;20992;-66
2023/04/15 00:40:05;;;;;;;5.97;3.90;;;6.10;93.20;;;;;;5012047;28;20663;-66
2023/04/15 00:42:34;;;;;;;6.40;4.53;;;6.10;93.90;;;;;;5004296;28;20604;-66
2023/04/15 00:45:01;;;;;;;5.87;4.13;;;6.10;93.50;;;;;;5006486;28;20202;-66
2023/04/15 00:47:29;;;;;;;6.10;4.80;;;6.00;93.60;;;;;;5008121;28;20629;-66
2023/04/15 00:49:56;;;;;;;6.43;4.97;;;6.10;94.70;;;;;;5009903;28;20697;-66
2023/04/15 00:52:23;;;;;;;6.83;5.20;;;6.10;95.00;;;;;;4996910;28;20280;-66
2023/04/15 00:54:51;;;;;;;7.30;5.03;;;6.10;95.00;;;;;;4995749;28;20275;-66
2023/04/15 00:57:21;;;;;;;5.73;4.80;;;6.10;95.80;;;;;;5006376;28;20205;-65
2023/04/15 00:59:50;;;;;;;7.03;5.40;;;6.00;96.00;;;;;;5005154;28;20658;-66
2023/04/15 01:02:16;;;;;;;6.80;5.03;;;6.10;96.30;;;;;;5015231;28;20221;-66
2023/04/15 01:04:43;;;;;;;6.47;5.30;;;6.20;96.50;;;;;;5010516;28;21045;-66
2023/04/15 01:07:10;;;;;;;8.07;5.17;;;6.20;96.80;;;;;;5006814;28;20714;-65
2023/04/15 01:09:37;;;;;;;9.87;5.73;;;6.20;97.00;;;;;;4972989;28;20217;-66
2023/04/15 01:12:05;;;;;;;7.80;5.70;;;6.20;97.20;;;;;;5005087;28;20205;-66
2023/04/15 01:14:33;;;;;;;7.50;5.67;;;6.20;97.50;;;;;;5018764;28;20381;-66
2023/04/15 01:17:01;;;;;;;9.20;6.30;;;6.20;97.70;;;;;;5008518;28;20206;-66
2023/04/15 01:19:28;;;;;;;8.57;5.90;;;6.30;97.90;;;;;;5002623;28;20460;-66
2023/04/15 01:21:56;;;;;;;8.83;6.20;;;6.20;98.00;;;;;;5004433;28;20213;-66
2023/04/15 01:24:24;;;;;;;9.23;6.80;;;6.30;98.60;;;;;;4990530;28;20207;-66
2023/04/15 01:26:52;;;;;;;9.73;6.40;;;6.20;98.30;;;;;;5009754;28;20210;-66
2023/04/15 01:29:18;;;;;;;9.30;6.73;;;6.20;99.10;;;;;;5004298;28;20198;-65
2023/04/15 01:31:50;;;;;;;9.60;7.03;;;6.20;99.60;;;;;;5007456;28;20206;-66
2023/04/15 01:34:17;;;;;;;9.53;6.63;;;6.20;99.90;;;;;;5004912;28;20805;-66
2023/04/15 01:36:44;;;;;;;10.27;7.13;;;6.30;99.90;;;;;;5010377;28;20556;-66
2023/04/15 01:39:11;;;;;;;10.67;7.13;;;6.30;99.90;;;;;;5012114;28;20220;-66
2023/04/15 01:41:38;;;;;;;10.43;7.33;;;6.30;99.90;;;;;;4976789;28;20811;-66
2023/04/15 01:44:06;;;;;;;10.73;7.37;;;6.40;99.90;;;;;;5009188;28;20222;-66
2023/04/15 01:46:33;;;;;;;8.83;6.63;;;6.40;99.90;;;;;;5008343;28;20370;-66
2023/04/15 01:49:00;;;;;;;10.27;7.20;;;6.30;99.90;;;;;;5023809;28;20200;-66
2023/04/15 01:51:27;;;;;;;10.03;7.20;;;6.30;99.90;;;;;;4987993;28;20205;-66
2023/04/15 01:53:55;;;;;;;12.93;7.50;;;6.30;99.90;;;;;;5010926;28;20198;-66
2023/04/15 01:56:24;;;;;;;9.87;7.30;;;6.30;99.90;;;;;;4971496;28;20800;-66
2023/04/15 01:58:51;;;;;;;10.73;7.43;;;6.30;99.90;;;;;;5001366;28;21020;-66
2023/04/15 02:01:19;;;;;;;11.30;7.23;;;6.30;99.90;;;;;;5017765;28;20203;-65
2023/04/15 02:03:46;;;;;;;12.93;7.80;;;6.40;99.90;;;;;;5005065;28;20221;-66
2023/04/15 02:06:13;;;;;;;10.90;8.07;;;6.40;99.90;;;;;;5001997;28;20229;-66
2023/04/15 02:08:40;;;;;;;12.73;7.47;;;6.40;99.90;;;;;;4994171;28;20243;-66
2023/04/15 02:11:07;;;;;;;12.03;8.13;;;6.40;99.90;;;;;;5015208;28;20194;-66
2023/04/15 02:13:33;;;;;;;13.10;8.90;;;6.40;99.90;;;;;;4958389;28;20849;-66
2023/04/15 02:16:00;;;;;;;12.37;7.57;;;6.40;99.90;;;;;;5017902;28;20197;-66
2023/04/15 02:18:28;;;;;;;10.97;7.63;;;6.40;99.90;;;;;;5002096;28;20403;-66
2023/04/15 02:20:57;;;;;;;10.27;7.70;;;6.50;99.90;;;;;;5006015;28;20205;-66
2023/04/15 02:23:24;;;;;;;12.67;6.70;;;6.50;99.90;;;;;;5002539;28;20236;-66
2023/04/15 02:25:51;;;;;;;10.63;7.57;;;6.50;99.90;;;;;;5007576;28;20253;-66
2023/04/15 02:28:17;;;;;;;11.73;7.57;;;6.40;99.90;;;;;;4973538;28;20217;-66
2023/04/15 02:30:47;;;;;;;10.20;7.23;;;6.40;99.90;;;;;;5004395;28;20664;-66
2023/04/15 02:33:14;;;;;;;12.27;7.43;;;6.50;99.90;;;;;;5022050;28;20741;-66
2023/04/15 02:35:44;;;;;;;9.87;6.97;;;6.50;99.90;;;;;;4993720;28;21683;-66
2023/04/15 02:38:11;;;;;;;9.67;6.40;;;6.50;99.90;;;;;;5019049;28;20201;-66
2023/04/15 02:40:38;;;;;;;8.63;6.23;;;6.60;99.90;;;;;;5002904;28;20205;-66
2023/04/15 02:43:05;;;;;;;8.97;5.67;;;6.60;99.90;;;;;;4989767;28;20830;-66
2023/04/15 02:45:32;;;;;;;8.30;6.23;;;6.70;99.90;;;;;;5003471;28;20225;-66
2023/04/15 02:48:02;;;;;;;8.90;6.30;;;6.70;99.90;;;;;;5011079;28;20208;-66
2023/04/15 02:50:30;;;;;;;9.33;6.17;;;6.70;99.90;;;;;;5001250;28;20486;-66
2023/04/15 02:53:00;;;;;;;9.87;6.00;;;6.70;99.90;;;;;;5006763;28;20202;-66
2023/04/15 02:55:26;;;;;;;10.33;6.43;;;6.80;99.90;;;;;;4992961;28;20216;-66
2023/04/15 02:57:53;;;;;;;10.03;7.03;;;6.80;99.90;;;;;;4983757;28;20202;-66
2023/04/15 03:00:20;;;;;;;8.87;6.33;;;6.80;99.90;;;;;;4990969;28;20210;-66
2023/04/15 03:02:50;;;;;;;8.30;5.73;;;6.80;99.90;;;;;;5012218;28;20221;-66
2023/04/15 03:05:17;;;;;;;9.90;6.60;;;6.90;99.90;;;;;;5005719;28;20851;-65
2023/04/15 03:07:44;;;;;;;8.90;6.03;;;6.90;99.90;;;;;;5005037;28;20193;-66
2023/04/15 03:10:12;;;;;;;10.20;6.50;;;7.00;99.90;;;;;;5000560;28;20655;-66
2023/04/15 03:12:39;;;;;;;11.13;6.80;;;6.90;99.90;;;;;;5022087;28;20217;-66
2023/04/15 03:15:08;;;;;;;9.47;7.37;;;6.90;99.90;;;;;;4958477;28;20213;-66
2023/04/15 03:17:35;;;;;;;12.90;7.63;;;7.00;99.90;;;;;;5021194;28;20565;-66
2023/04/15 03:20:03;;;;;;;12.10;7.90;;;7.00;99.90;;;;;;5012648;28;20205;-66
2023/04/15 03:22:30;;;;;;;12.37;8.33;;;6.90;99.90;;;;;;5003470;28;20220;-66
2023/04/15 03:24:57;;;;;;;13.40;8.17;;;7.00;99.90;;;;;;5018089;28;20197;-66
2023/04/15 03:27:26;;;;;;;11.47;8.13;;;7.00;99.90;;;;;;5015656;28;20219;-66
2023/04/15 03:29:52;;;;;;;12.57;8.63;;;7.00;99.90;;;;;;4983323;28;20206;-65
2023/04/15 03:32:19;;;;;;;14.70;8.67;;;7.00;99.90;;;;;;5008288;28;20212;-66
2023/04/15 03:34:46;;;;;;;11.43;7.73;;;7.00;99.90;;;;;;5015610;28;20412;-66
2023/04/15 03:37:13;;;;;;;13.03;8.33;;;7.00;99.90;;;;;;5007528;28;20516;-66
2023/04/15 03:39:40;;;;;;;12.70;8.37;;;7.00;99.90;;;;;;5008308;28;20233;-66
2023/04/15 03:42:07;;;;;;;13.13;8.73;;;7.00;99.90;;;;;;5002014;28;20205;-66
2023/04/15 03:44:36;;;;;;;11.87;8.73;;;7.00;99.90;;;;;;4982461;28;20849;-66
2023/04/15 03:47:02;;;;;;;12.30;8.67;;;7.10;99.90;;;;;;4998991;28;20351;-66
2023/04/15 03:49:29;;;;;;;15.07;9.07;;;7.10;99.90;;;;;;5019887;28;20226;-66
2023/04/15 03:51:56;;;;;;;13.70;9.50;;;7.10;99.90;;;;;;5009761;28;20634;-66
2023/04/15 03:54:23;;;;;;;12.93;8.77;;;7.10;99.90;;;;;;5007670;28;20690;-66
2023/04/15 03:56:49;;;;;;;12.83;8.93;;;7.20;99.90;;;;;;5017806;28;20761;-66
2023/04/15 03:59:16;;;;;;;12.93;8.77;;;7.20;99.90;;;;;;4990502;28;20284;-66
2023/04/15 04:01:45;;;;;;;14.43;8.93;;;7.20;99.90;;;;;;4982595;28;20492;-66
2023/04/15 04:04:11;;;;;;;14.00;9.73;;;7.30;99.90;;;;;;5019377;28;20618;-66
2023/04/15 04:06:38;;;;;;;15.87;10.37;;;7.20;99.90;;;;;;5005219;28;20326;-66
2023/04/15 04:09:05;;;;;;;14.20;9.87;;;7.30;99.90;;;;;;5023527;28;20194;-66
2023/04/15 04:11:32;;;;;;;15.03;9.43;;;7.30;99.90;;;;;;5006111;28;20198;-66
2023/04/15 04:13:58;;;;;;;14.30;9.87;;;7.30;99.90;;;;;;5011234;28;20198;-66
2023/04/15 04:16:25;;;;;;;13.83;9.87;;;7.30;99.90;;;;;;4977173;28;20209;-66
2023/04/15 04:18:53;;;;;;;13.37;9.23;;;7.30;99.90;;;;;;5019354;28;20201;-66
2023/04/15 04:21:20;;;;;;;14.83;10.17;;;7.30;99.90;;;;;;5002356;28;20557;-66
2023/04/15 04:23:47;;;;;;;13.87;9.27;;;7.40;99.90;;;;;;5002347;28;20229;-66
2023/04/15 04:26:15;;;;;;;18.93;10.37;;;7.40;99.90;;;;;;4995198;28;21959;-66
2023/04/15 04:28:41;;;;;;;16.57;10.70;;;7.30;99.90;;;;;;5021454;28;20227;-66
2023/04/15 04:31:08;;;;;;;13.80;8.80;;;7.30;99.90;;;;;;4985683;28;20221;-66
2023/04/15 04:33:35;;;;;;;12.13;9.03;;;7.40;99.90;;;;;;5010313;28;20202;-66
2023/04/15 04:36:05;;;;;;;14.67;10.47;;;7.40;99.90;;;;;;5018989;28;20198;-66
2023/04/15 04:38:32;;;;;;;14.13;9.77;;;7.40;99.90;;;;;;5011417;28;20296;-66
2023/04/15 04:40:59;;;;;;;14.70;9.13;;;7.40;99.90;;;;;;4995512;28;20209;-66
2023/04/15 04:43:25;;;;;;;15.90;9.83;;;7.40;99.90;;;;;;5016092;28;20221;-66
2023/04/15 04:45:52;;;;;;;16.43;10.13;;;7.40;99.90;;;;;;4967305;28;20287;-66
2023/04/15 04:48:19;;;;;;;14.63;9.60;;;7.40;99.90;;;;;;4997674;28;20752;-66
2023/04/15 04:50:46;;;;;;;12.93;9.63;;;7.40;99.90;;;;;;5012543;28;20220;-66
2023/04/15 04:53:15;;;;;;;15.27;9.50;;;7.40;99.90;;;;;;5011213;28;20589;-66
2023/04/15 04:55:41;;;;;;;13.90;9.37;;;7.40;99.90;;;;;;5010172;28;20228;-66
2023/04/15 04:58:08;;;;;;;13.30;9.57;;;7.40;99.90;;;;;;5010807;28;20685;-66
2023/04/15 05:00:36;;;;;;;15.87;9.53;;;7.40;99.90;;;;;;4993178;28;20206;-66
2023/04/15 05:03:03;;;;;;;13.03;9.17;;;7.50;99.90;;;;;;4979236;28;20213;-66
2023/04/15 05:05:30;;;;;;;16.03;10.33;;;7.50;99.90;;;;;;5020530;28;20198;-66
2023/04/15 05:07:57;;;;;;;16.60;9.83;;;7.50;99.90;;;;;;4999352;28;20256;-66
2023/04/15 05:10:25;;;;;;;14.70;10.07;;;7.50;99.90;;;;;;4998982;28;21396;-66
2023/04/15 05:12:52;;;;;;;14.83;9.70;;;7.50;99.90;;;;;;4995132;28;20230;-66
2023/04/15 05:15:19;;;;;;;15.93;10.60;;;7.50;99.90;;;;;;5000375;28;20221;-66
2023/04/15 05:17:46;;;;;;;17.73;11.53;;;7.50;99.90;;;;;;4990515;28;20644;-66
2023/04/15 05:20:14;;;;;;;15.83;10.50;;;7.50;99.90;;;;;;5010752;28;20854;-66
2023/04/15 05:22:41;;;;;;;16.10;10.63;;;7.60;99.90;;;;;;5014317;28;20221;-66
2023/04/15 05:25:08;;;;;;;14.73;10.57;;;7.60;99.90;;;;;;5014964;28;20229;-66
2023/04/15 05:27:36;;;;;;;16.00;10.73;;;7.60;99.90;;;;;;5005450;28;20216;-66
2023/04/15 05:30:04;;;;;;;17.93;11.37;;;7.60;99.90;;;;;;4998280;28;20358;-66
2023/04/15 05:32:31;;;;;;;18.10;10.70;;;7.60;99.90;;;;;;4991966;28;20475;-66
2023/04/15 05:34:57;;;;;;;17.40;11.83;;;7.70;99.90;;;;;;4999740;28;20197;-65
2023/04/15 05:37:25;;;;;;;13.90;10.17;;;7.70;99.90;;;;;;5016674;28;20839;-66
2023/04/15 05:39:51;;;;;;;17.87;11.73;;;7.70;99.90;;;;;;5007415;28;20256;-66
2023/04/15 05:42:18;;;;;;;14.97;10.70;;;7.70;99.90;;;;;;5006152;28;20871;-66
2023/04/15 05:44:46;;;;;;;16.67;10.43;;;7.70;99.90;;;;;;5013322;28;20225;-66
2023/04/15 05:47:13;;;;;;;17.67;10.30;;;7.70;99.90;;;;;;4977679;28;20232;-66
2023/04/15 05:49:40;;;;;;;18.20;11.30;;;7.70;99.90;;;;;;5003797;28;20198;-67
2023/04/15 05:52:07;;;;;;;18.13;10.53;;;7.70;99.90;;;;;;4987777;28;20205;-66
2023/04/15 05:54:33;;;;;;;16.73;10.43;;;7.70;99.90;;;;;;5013725;28;20224;-66
2023/04/15 05:57:00;;;;;;;13.50;10.20;;;7.80;99.90;;;;;;5002611;28;20202;-66
2023/04/15 05:59:28;;;;;;;15.53;10.27;;;7.80;99.90;;;;;;5020026;28;20302;-67
2023/04/15 06:01:56;;;;;;;15.03;9.80;;;7.80;99.90;;;;;;4995389;28;20201;-67
2023/04/15 06:04:23;;;;;;;14.27;9.20;;;7.80;99.90;;;;;;5011590;28;20486;-67
2023/04/15 06:06:50;;;;;;;14.17;9.23;;;7.80;99.90;;;;;;5003519;28;20233;-66
2023/04/15 06:09:16;;;;;;;13.40;9.87;;;7.80;99.90;;;;;;5020139;28;20313;-66
2023/04/15 06:11:43;;;;;;;14.57;9.83;;;8.10;99.90;;;;;;5004980;28;20201;-66
2023/04/15 06:14:10;;;;;;;14.90;9.23;;;7.90;99.90;;;;;;5005571;28;20194;-67
2023/04/15 06:16:37;;;;;;;12.03;9.20;;;7.90;99.90;;;;;;5023605;28;20196;-66
2023/04/15 06:19:05;;;;;;;12.93;9.27;;;7.90;99.90;;;;;;4974280;28;20213;-67
2023/04/15 06:21:32;;;;;;;14.20;9.03;;;7.90;99.90;;;;;;5007330;28;20194;-67
2023/04/15 06:24:00;;;;;;;13.33;9.07;;;7.90;99.90;;;;;;5023479;28;20225;-66
2023/04/15 06:26:27;;;;;;;11.40;8.57;;;7.90;99.90;;;;;;5003065;28;20336;-67
2023/04/15 06:28:54;;;;;;;13.93;8.83;;;7.90;99.90;;;;;;5005173;28;20722;-66
2023/04/15 06:31:21;;;;;;;15.27;8.37;;;7.90;99.90;;;;;;5015076;28;20954;-67
2023/04/15 06:33:48;;;;;;;12.50;8.13;;;8.00;99.90;;;;;;5004570;28;20576;-66
2023/04/15 06:36:16;;;;;;;12.23;8.10;;;7.90;99.90;;;;;;4974559;28;21048;-67
2023/04/15 06:38:43;;;;;;;12.93;8.30;;;8.00;99.90;;;;;;5022162;28;20196;-66
2023/04/15 06:41:10;;;;;;;11.13;7.63;;;8.00;99.90;;;;;;5017065;28;20197;-67
2023/04/15 06:43:37;;;;;;;9.87;8.07;;;8.00;99.90;;;;;;5012254;28;20197;-67
2023/04/15 06:46:03;;;;;;;11.57;6.67;;;8.00;99.90;;;;;;5016889;28;20217;-66
2023/04/15 06:48:30;;;;;;;10.63;7.10;;;8.00;99.90;;;;;;5009424;28;20198;-67
2023/04/15 06:50:58;;;;;;;9.67;7.07;;;8.00;99.90;;;;;;4982189;28;20705;-67
2023/04/15 06:53:26;;;;;;;9.80;6.53;;;8.00;99.90;;;;;;5010355;28;20460;-67
2023/04/15 06:55:53;;;;;;;7.90;6.47;;;8.00;99.90;;;;;;5022551;28;20201;-67
2023/04/15 06:58:20;;;;;;;8.70;6.43;;;8.10;99.90;;;;;;5006963;28;20198;-67
2023/04/15 07:00:47;;;;;;;8.77;6.10;;;8.10;99.90;;;;;;4999341;28;20208;-67
2023/04/15 07:03:15;;;;;;;9.30;6.27;;;8.10;99.90;;;;;;5000222;28;20320;-67
2023/04/15 07:05:42;;;;;;;7.53;6.17;;;8.10;99.90;;;;;;4983944;28;20844;-67
2023/04/15 07:08:09;;;;;;;7.33;6.07;;;8.10;99.90;;;;;;4969690;28;20205;-67
2023/04/15 07:10:37;;;;;;;6.93;6.10;;;8.20;99.90;;;;;;5010844;28;20193;-67
2023/04/15 07:13:04;;;;;;;7.97;6.23;;;8.20;99.90;;;;;;5017142;28;20202;-67
2023/04/15 07:15:31;;;;;;;7.17;6.03;;;8.20;99.90;;;;;;4988411;28;20578;-67
2023/04/15 07:17:58;;;;;;;7.07;6.10;;;8.10;99.90;;;;;;5008303;28;20201;-67
2023/04/15 07:20:24;;;;;;;10.40;6.10;;;8.20;99.90;;;;;;4988051;28;20212;-67
2023/04/15 07:22:51;;;;;;;8.83;6.80;;;8.20;99.90;;;;;;4990762;28;20819;-67
2023/04/15 07:25:18;;;;;;;8.20;6.20;;;8.30;99.90;;;;;;5023765;28;20225;-67
2023/04/15 07:27:47;;;;;;;7.93;4.87;;;8.30;99.90;;;;;;5013883;28;20197;-67
2023/04/15 07:30:14;;;;;;;7.63;4.87;;;8.30;99.90;;;;;;5008287;28;20680;-68
2023/04/15 07:32:42;;;;;;;5.83;4.80;;;8.30;99.90;;;;;;5007108;28;20405;-67
2023/04/15 07:35:09;;;;;;;7.40;4.93;;;8.30;99.90;;;;;;5007203;28;20201;-68
2023/04/15 07:37:36;;;;;;;8.47;5.20;;;8.30;99.90;;;;;;4979090;28;20464;-67
2023/04/15 07:40:05;;;;;;;6.90;4.80;;;8.30;99.90;;;;;;5025583;28;20586;-67
2023/04/15 07:42:32;;;;;;;6.73;4.23;;;8.40;99.90;;;;;;5014423;28;20202;-67
2023/04/15 07:45:00;;;;;;;6.23;4.27;;;8.40;99.90;;;;;;5015910;28;20609;-67
2023/04/15 07:47:27;;;;;;;5.47;4.60;;;8.40;99.90;;;;;;5006200;28;20221;-67
2023/04/15 07:49:54;;;;;;;8.83;4.53;;;8.40;99.90;;;;;;5004407;28;20203;-68
2023/04/15 07:52:21;;;;;;;7.00;4.97;;;8.50;99.90;;;;;;4992487;28;20206;-68
2023/04/15 07:54:48;;;;;;;5.70;3.50;;;8.50;99.90;;;;;;5011047;28;20686;-68
2023/04/15 07:57:15;;;;;;;5.87;4.00;;;8.40;99.90;;;;;;5026229;28;20197;-67
2023/04/15 07:59:42;;;;;;;6.43;4.17;;;8.50;99.90;;;;;;5017724;28;20950;-68
2023/04/15 08:02:11;;;;;;;5.03;3.63;;;8.50;99.90;;;;;;4971338;28;20217;-68
2023/04/15 08:04:38;;;;;;;8.77;3.90;;;8.50;99.90;;;;;;4997670;28;20226;-68
2023/04/15 08:07:04;;;;;;;5.53;4.10;;;8.40;99.90;;;;;;4964571;28;20226;-68
2023/04/15 08:09:31;;;;;;;6.77;3.93;;;8.40;99.90;;;;;;4989065;28;20225;-68
2023/04/15 08:11:58;;;;;;;6.93;4.23;;;8.50;99.90;;;;;;5020235;28;20213;-68
2023/04/15 08:14:25;;;;;;;5.37;3.90;;;8.50;99.90;;;;;;5012985;28;20748;-68
2023/04/15 08:16:52;;;;;;;5.57;4.03;;;8.40;99.90;;;;;;4976892;28;20221;-68
2023/04/15 08:19:20;;;;;;;5.53;3.87;;;8.50;99.90;;;;;;4994453;28;20202;-67
2023/04/15 08:21:47;;;;;;;4.53;3.63;;;8.50;99.90;;;;;;4988284;28;20202;-68
2023/04/15 08:24:14;;;;;;;5.90;3.57;;;8.50;99.90;;;;;;4952655;28;20340;-68
2023/04/15 08:26:41;;;;;;;3.87;3.33;;;8.50;99.90;;;;;;5019427;28;20229;-68
2023/04/15 08:29:08;;;;;;;4.43;3.50;;;8.50;99.90;;;;;;5008978;28;20225;-68
2023/04/15 08:31:34;;;;;;;5.63;4.10;;;8.50;99.90;;;;;;4991567;28;20375;-68
2023/04/15 08:34:01;;;;;;;5.77;4.20;;;8.50;99.90;;;;;;4990865;28;20976;-68
2023/04/15 08:36:30;;;;;;;6.97;3.80;;;8.50;99.90;;;;;;5008661;28;20209;-68
2023/04/15 08:38:56;;;;;;;5.20;3.30;;;8.50;99.90;;;;;;4955344;28;20710;-68
2023/04/15 08:41:25;;;;;;;7.03;3.20;;;8.50;99.90;;;;;;5028121;28;20571;-68
2023/04/15 08:43:58;;;;;;;5.97;3.33;;;8.60;99.90;;;;;;5016947;28;20285;-68
2023/04/15 08:46:24;;;;;;;4.57;3.37;;;8.60;99.90;;;;;;5004971;28;20782;-68
2023/04/15 08:48:52;;;;;;;5.27;3.50;;;8.70;99.90;;;;;;4970983;28;20217;-68
2023/04/15 08:51:19;;;;;;;3.80;3.10;;;8.60;99.90;;;;;;5002332;28;20201;-68
2023/04/15 08:53:47;;;;;;;3.63;3.00;;;8.70;99.90;;;;;;4968024;28;20237;-69
2023/04/15 08:56:15;;;;;;;4.67;3.00;;;8.80;99.90;;;;;;5009359;28;20256;-68
2023/04/15 08:58:44;;;;;;;5.37;3.23;;;8.70;99.90;;;;;;5013026;28;20214;-68
2023/04/15 09:01:12;;;;;;;4.83;2.97;;;8.70;99.90;;;;;;5003565;28;20236;-69
2023/04/15 09:03:39;;;;;;;3.77;3.03;;;8.70;99.90;;;;;;5002209;28;20236;-68
2023/04/15 09:06:07;;;;;;;4.07;3.10;;;8.80;99.90;;;;;;5005431;28;20487;-69
2023/04/15 09:08:34;;;;;;;6.93;3.07;;;8.80;99.90;;;;;;5008615;28;20210;-69
2023/04/15 09:11:03;;;;;;;3.73;2.70;;;8.80;99.90;;;;;;4981604;28;20202;-68
2023/04/15 09:13:30;;;;;;;3.70;2.80;;;8.70;99.90;;;;;;4998322;28;20710;-69
2023/04/15 09:15:58;;;;;;;3.23;2.40;;;8.70;99.90;;;;;;5001874;28;20224;-68
2023/04/15 09:18:29;;;;;;;9.67;2.93;;;8.70;99.90;;;;;;4989256;28;20256;-69
2023/04/15 09:20:56;;;;;;;5.90;2.90;;;8.70;99.90;;;;;;5002026;28;20807;-68
2023/04/15 09:23:23;;;;;;;4.87;3.40;;;8.70;99.90;;;;;;4991455;28;23427;-69
2023/04/15 09:25:50;;;;;;;3.33;2.80;;;8.70;99.90;;;;;;4973973;28;20758;-69
2023/04/15 09:28:25;;;;;;;4.33;2.90;;;8.70;99.90;;;;;;4978832;28;20224;-69
2023/04/15 09:30:55;;;;;;;5.43;3.03;;;8.70;99.90;;;;;;5008308;28;20231;-69
2023/04/15 09:33:22;;;;;;;3.20;2.50;;;8.70;99.90;;;;;;4977281;28;20273;-69
2023/04/15 09:35:58;;;;;;;3.90;2.90;;;8.70;99.90;;;;;;5013993;28;20214;-69
2023/04/15 09:38:25;;;;;;;3.90;2.77;;;8.80;99.90;;;;;;4988066;28;20335;-69
2023/04/15 09:40:52;;;;;;;3.93;3.00;;;8.80;99.90;;;;;;4958866;28;20240;-69
2023/04/15 09:43:20;;;;;;;4.43;2.73;;;8.80;99.90;;;;;;5012228;28;21731;-68
2023/04/15 09:45:49;;;;;;;4.77;3.03;;;8.80;99.90;;;;;;5008423;28;20723;-69
2023/04/15 09:48:19;;;;;;;2.60;2.37;;;8.80;99.90;;;;;;4973077;28;20624;-69
2023/04/15 09:50:47;;;;;;;4.40;2.50;;;8.80;99.90;;;;;;4982133;28;20222;-69
2023/04/15 09:53:17;;;;;;;5.07;2.80;;;8.80;99.90;;;;;;5001679;28;20208;-69
2023/04/15 09:55:46;;;;;;;4.17;2.57;;;8.90;99.90;;;;;;5002220;28;20989;-69
2023/04/15 09:58:20;;;;;;;4.03;2.63;;;8.90;99.90;;;;;;4972987;28;20930;-69
2023/04/15 10:00:48;;;;;;;6.87;3.07;;;9.00;99.90;;;;;;5000149;28;20382;-69
2023/04/15 10:03:19;;;;;;;7.80;2.87;;;9.00;99.90;;;;;;4993065;28;20209;-69
2023/04/15 10:05:49;;;;;;;6.27;3.63;;;9.00;99.90;;;;;;4968852;28;20408;-69
2023/04/15 10:08:18;;;;;;;6.67;3.47;;;9.00;99.90;;;;;;5010841;28;20303;-69
2023/04/15 10:10:46;;;;;;;8.03;3.47;;;9.00;99.90;;;;;;4995485;28;20283;-69
2023/04/15 10:13:13;;;;;;;5.00;3.80;;;9.10;99.90;;;;;;4978392;28;20328;-69
2023/04/15 10:15:44;;;;;;;8.00;3.97;;;9.10;99.90;;;;;;5009582;28;20459;-69
2023/04/15 10:18:13;;;;;;;4.93;3.93;;;9.10;99.90;;;;;;5000065;28;20208;-69
2023/04/15 10:20:41;;;;;;;4.93;4.13;;;9.20;99.90;;;;;;4997933;28;21392;-69
2023/04/15 10:23:09;;;;;;;6.30;4.40;;;9.20;99.90;;;;;;4970148;28;20994;-69
2023/04/15 10:25:37;;;;;;;7.30;4.73;;;9.20;99.90;;;;;;4983691;28;20721;-70
2023/04/15 10:28:06;;;;;;;6.60;4.23;;;9.20;99.90;;;;;;4976647;28;20237;-69
2023/04/15 10:30:33;;;;;;;5.93;4.73;;;9.10;99.90;;;;;;5010901;28;20228;-70
2023/04/15 10:33:02;;;;;;;6.80;4.37;;;9.10;99.90;;;;;;5002620;28;20221;-70
2023/04/15 10:35:30;;;;;;;6.47;4.13;;;9.10;99.90;;;;;;5005140;28;20221;-69
2023/04/15 10:37:57;;;;;;;5.73;4.57;;;9.10;99.90;;;;;;5000510;28;20579;-69
2023/04/15 10:40:30;;;;;;;6.43;4.80;;;9.00;99.90;;;;;;5021634;28;20259;-70
2023/04/15 10:42:58;;;;;;;6.27;5.37;;;9.10;99.90;;;;;;4985457;28;20213;-69
2023/04/15 10:45:27;;;;;;;9.50;5.27;;;9.10;99.90;;;;;;5017974;28;20233;-69
2023/04/15 10:47:56;;;;;;;9.80;6.17;;;9.00;99.90;;;;;;5003023;28;20770;-70
2023/04/15 10:50:27;;;;;;;10.57;5.87;;;9.00;99.90;;;;;;5022571;28;20225;-69
2023/04/15 10:52:53;;;;;;;6.97;5.50;;;9.00;99.90;;;;;;5013548;28;20828;-70
2023/04/15 10:55:22;;;;;;;9.80;6.03;;;9.00;99.90;;;;;;5019862;28;20233;-70
2023/04/15 10:57:52;;;;;;;8.47;5.77;;;9.00;99.90;;;;;;5009234;28;20633;-70
2023/04/15 11:00:21;;;;;;;7.73;5.97;;;9.00;99.90;;;;;;4989679;28;20225;-70
2023/04/15 11:02:52;;;;;;;10.10;6.47;;;8.90;99.90;;;;;;5002691;28;20585;-69
2023/04/15 11:05:20;;;;;;;8.43;6.33;;;9.00;99.90;;;;;;5019238;28;20220;-69
2023/04/15 11:07:55;;;;;;;8.10;6.23;;;9.00;99.90;;;;;;5013104;28;20507;-70
2023/04/15 11:10:55;;;;;;;9.53;6.10;;;9.00;99.90;;;;;;5016650;28;20244;-69
2023/04/15 11:13:28;;;;;;;10.07;7.17;;;9.00;99.90;;;;;;4989189;28;20704;-70
2023/04/15 11:16:00;;;;;;;8.87;6.40;;;9.00;99.90;;;;;;5012700;28;20303;-70
2023/04/15 11:18:32;;;;;;;10.27;7.83;;;8.90;99.90;;;;;;5003016;28;20876;-70
2023/04/15 11:21:05;;;;;;;9.90;7.27;;;9.00;99.90;;;;;;5003485;28;20248;-69
2023/04/15 11:23:38;;;;;;;10.50;7.53;;;8.90;99.90;;;;;;5006268;28;20226;-69
2023/04/15 11:26:08;;;;;;;15.33;8.07;;;8.90;99.90;;;;;;5016662;28;21013;-70
2023/04/15 11:28:36;;;;;;;11.63;8.10;;;9.00;99.90;;;;;;5002112;28;20202;-69
2023/04/15 11:31:09;;;;;;;13.07;8.00;;;8.90;99.90;;;;;;4990078;28;20367;-70
2023/04/15 11:33:36;;;;;;;11.60;8.23;;;8.90;99.90;;;;;;5020715;28;20244;-69
2023/04/15 11:36:03;;;;;;;10.97;7.67;;;9.00;99.90;;;;;;5006233;28;20828;-69
2023/04/15 11:38:30;;;;;;;13.67;8.00;;;9.00;99.90;;;;;;5020355;28;20202;-70
2023/04/15 11:40:59;;;;;;;12.13;8.67;;;9.10;99.90;;;;;;5010892;28;20208;-70
2023/04/15 11:43:25;;;;;;;12.53;8.37;;;9.10;99.90;;;;;;5003180;28;20220;-70
2023/04/15 11:45:54;;;;;;;16.63;8.83;;;9.10;99.90;;;;;;4985766;28;20233;-69
2023/04/15 11:48:23;;;;;;;16.40;9.17;;;9.10;99.90;;;;;;5021512;28;20204;-70
2023/04/15 11:50:54;;;;;;;16.87;9.30;;;9.20;99.90;;;;;;4996983;28;20229;-70
2023/04/15 11:53:22;;;;;;;15.53;9.53;;;9.20;99.90;;;;;;5021005;28;20194;-69
2023/04/15 11:55:50;;;;;;;15.90;9.37;;;9.30;99.90;;;;;;5013551;28;20209;-70
2023/04/15 11:58:20;;;;;;;15.57;9.57;;;9.20;99.90;;;;;;5004080;28;20240;-69
2023/04/15 12:00:49;;;;;;;15.40;8.63;;;9.20;99.90;;;;;;4982675;28;20622;-70
2023/04/15 12:03:18;;;;;;;15.80;10.17;;;9.20;99.90;;;;;;5019410;28;20197;-70
2023/04/15 12:06:15;;;;;;;13.70;9.13;;;9.20;99.90;;;;;;4999325;28;20256;-70
2023/04/15 12:08:59;;;;;;;14.90;9.47;;;9.30;99.90;;;;;;5017707;28;21225;-70
2023/04/15 12:11:46;;;;;;;17.33;10.23;;;9.30;99.90;;;;;;5019936;28;21025;-70
2023/04/15 12:14:20;;;;;;;19.60;10.80;;;9.30;99.90;;;;;;4999867;28;20306;-70
2023/04/15 12:16:48;;;;;;;18.93;10.37;;;9.40;99.90;;;;;;4975368;28;20239;-70
2023/04/15 12:19:17;;;;;;;17.13;10.45;;;9.40;99.90;;;;;;5014722;28;20202;-70
2023/04/15 12:21:46;;;;;;;21.60;10.53;;;9.40;99.90;;;;;;5002880;28;20224;-70
2023/04/15 12:24:13;;;;;;;20.03;10.70;;;9.40;99.90;;;;;;4996837;28;20221;-70
2023/04/15 12:26:45;;;;;;;19.13;10.53;;;9.40;99.90;;;;;;5006420;28;20225;-70
2023/04/15 12:29:15;;;;;;;20.47;10.77;;;9.40;99.90;;;;;;5000978;28;20209;-70
2023/04/15 12:31:54;;;;;;;16.90;9.57;;;9.40;99.90;;;;;;4972210;28;22132;-70
2023/04/15 12:34:28;;;;;;;16.33;10.23;;;9.40;99.90;;;;;;5012584;28;20217;-70
2023/04/15 12:36:55;;;;;;;18.83;10.60;;;9.40;99.90;;;;;;5005598;28;20351;-70
2023/04/15 12:39:23;;;;;;;21.75;11.95;;;9.50;99.90;;;;;;5012432;28;20202;-70
2023/04/15 12:41:50;;;;;;;24.75;13.65;;;9.50;99.90;;;;;;5020046;28;20720;-70
2023/04/15 12:44:19;;;;;;;22.83;13.05;;;9.40;99.90;;;;;;4999091;28;22569;-70
2023/04/15 12:46:46;;;;;;;23.13;13.20;;;9.40;99.90;;;;;;5009756;28;20229;-70
2023/04/15 12:49:14;;;;;;;32.97;16.58;;;9.50;99.90;;;;;;4991886;28;20466;-70
2023/04/15 12:51:41;;;;;;;34.92;18.05;;;9.50;99.90;;;;;;4988398;28;20618;-70
2023/04/15 12:54:08;;;;;;;35.50;18.10;;;9.60;99.90;;;;;;5008135;28;20319;-70